Accueil
METAR-TAF:

METAR-TAF

Aéroports :

Aéroport Kushok-Bakula-Rimpoché

Leh, Inde

latitude: 34-08-09N, longitude: 077-32-47E, altitude: 3256 m

METAR: absent

Heure: 04:09 (22:39 UTC)

Prévision

Le bulletin a été fait il y a 13 heures et 9 minutes, à 09:30 UTC
Prévision valable du 22 à 18 UTC au 23 à 12 UTC
Vent 2 kt de direction variable
Visibilité: 6000 m
Quelques nuages à une hauteur de 6000 ft
Nuages épars à une hauteur de 15000 ft
Temporairement
du 23 à 10 UTC au 23 à 12 UTC
Vent 2 kt de direction variable
Visibilité: 6000 m
Quelques nuages à une hauteur de 3000 ft
Temporairement
du 22 à 13 UTC au 22 à 15 UTC
Vent 2 kt de direction variable
Visibilité: 4500 m
Quelques nuages à une hauteur de 3000 ft
brume sèche
Evoluant progressivement
du 22 à 18 UTC au 22 à 22 UTC
Vent 2 kt de direction variable
Visibilité: 5000 m
Ciel clair
brume
Temporairement
du 22 à 23 UTC au 22 à 24 UTC
Vent 2 kt de direction variable
Visibilité: 3000 m
Ciel clair
brume

TAF: VILH 220930Z 2218/2312 VRB02KT 6000 FEW060 SCT150 TEMPO 2310/2312 29010KTVIPK 220930Z 2212/2224 VRB02KT 6000 FEW030 TEMPO 2213/2215 VRB02KT 4500 HZ FEW030 BECMG 2218/2222 VRB02KT 5000 BR SKC TEMPO 2223/2224 VRB02KT 3000 BR SKC

Observations et prévisions météorologiques de plus de 4000 aéroports (messages METAR et TAF).

Les stations disponibles sont représentées par des disques jaunes et rouges sur la carte.

Passer la souris dessus pour voir le nom de la station.

Cliquer dessus pour voir les observations et prévisions météorologiques.

Pour changer de carte: cliquez sur les boutons verts avec une croix noire pour zoomer, sur le bouton vert avec un tiret pour effectuer un zoom arrière, ou sur les flèches vertes pour les cartes adjacentes.


METAR-TAF: